createdAt,value
2023-03-10T00:01:30.583Z,5.25
2023-03-10T00:03:58.724Z,5.15
2023-03-10T00:06:27.775Z,6.13
2023-03-10T00:08:55.760Z,5.18
2023-03-10T00:11:22.552Z,4.43
2023-03-10T00:13:49.213Z,4.28
2023-03-10T00:16:21.813Z,4.88
2023-03-10T00:18:49.150Z,4.38
2023-03-10T00:21:17.893Z,4.70
2023-03-10T00:23:44.885Z,4.82
2023-03-10T00:26:16.375Z,4.18
2023-03-10T00:28:43.338Z,6.22
2023-03-10T00:31:19.119Z,5.35
2023-03-10T00:33:46.526Z,5.03
2023-03-10T00:36:21.980Z,5.03
2023-03-10T00:38:49.907Z,4.60
2023-03-10T00:41:20.448Z,5.00
2023-03-10T00:46:14.863Z,3.92
2023-03-10T00:48:42.000Z,4.10
2023-03-10T00:51:08.928Z,4.10
2023-03-10T00:53:37.880Z,4.18
2023-03-10T00:56:04.845Z,4.32
2023-03-10T00:58:32.630Z,4.22
2023-03-10T01:01:00.209Z,4.10
2023-03-10T01:03:28.035Z,3.85
2023-03-10T01:05:55.570Z,3.97
2023-03-10T01:08:23.050Z,4.13
2023-03-10T01:10:50.546Z,3.63
2023-03-10T01:13:18.499Z,4.10
2023-03-10T01:15:47.878Z,4.05
2023-03-10T01:18:16.686Z,4.03
2023-03-10T01:20:43.746Z,3.80
2023-03-10T01:23:30.764Z,4.13
2023-03-10T01:25:57.666Z,4.25
2023-03-10T01:28:24.660Z,3.97
2023-03-10T01:30:51.448Z,4.47
2023-03-10T01:33:18.470Z,5.07
2023-03-10T01:35:45.324Z,4.20
2023-03-10T01:38:12.712Z,3.58
2023-03-10T01:40:45.510Z,4.60
2023-03-10T01:43:21.979Z,3.90
2023-03-10T01:45:48.620Z,3.10
2023-03-10T01:48:16.934Z,4.75
2023-03-10T01:50:46.342Z,4.70
2023-03-10T01:53:15.982Z,5.22
2023-03-10T01:55:52.587Z,4.33
2023-03-10T01:58:23.030Z,4.40
2023-03-10T02:00:52.620Z,4.53
2023-03-10T02:03:49.911Z,4.73
2023-03-10T02:06:21.943Z,4.32
2023-03-10T02:08:52.224Z,4.40
2023-03-10T02:11:21.390Z,4.65
2023-03-10T02:13:48.582Z,4.80
2023-03-10T02:16:16.653Z,4.82
2023-03-10T02:18:46.601Z,4.60
2023-03-10T02:21:48.013Z,4.65
2023-03-10T02:24:22.747Z,3.97
2023-03-10T02:27:06.498Z,4.53
2023-03-10T02:29:57.994Z,4.47
2023-03-10T02:32:25.707Z,5.25
2023-03-10T02:34:52.627Z,4.50
2023-03-10T02:37:31.032Z,5.05
2023-03-10T02:39:58.337Z,4.80
2023-03-10T02:42:29.697Z,5.30
2023-03-10T02:44:57.014Z,4.90
2023-03-10T02:47:24.129Z,4.53
2023-03-10T02:49:50.859Z,4.38
2023-03-10T02:52:36.443Z,4.13
2023-03-10T02:55:03.423Z,4.65
2023-03-10T02:57:30.100Z,4.82
2023-03-10T02:59:56.861Z,4.75
2023-03-10T03:02:23.686Z,5.10
2023-03-10T03:04:50.432Z,4.68
2023-03-10T03:07:17.183Z,5.68
2023-03-10T03:09:43.939Z,5.05
2023-03-10T03:12:10.649Z,5.05
2023-03-10T03:14:37.294Z,5.18
2023-03-10T03:17:04.075Z,4.40
2023-03-10T03:19:30.887Z,4.25
2023-03-10T03:21:57.624Z,5.07
2023-03-10T03:24:24.505Z,5.28
2023-03-10T03:26:51.183Z,4.97
2023-03-10T03:29:18.107Z,4.78
2023-03-10T03:31:44.917Z,5.50
2023-03-10T03:34:12.453Z,5.20
2023-03-10T03:36:39.311Z,4.57
2023-03-10T03:39:07.094Z,3.97
2023-03-10T03:41:34.117Z,4.65
2023-03-10T03:44:00.921Z,4.70
2023-03-10T03:46:27.946Z,4.63
2023-03-10T03:48:54.750Z,4.53
2023-03-10T03:51:21.450Z,3.92
2023-03-10T03:53:48.137Z,3.90
2023-03-10T03:56:14.794Z,4.40
2023-03-10T03:58:41.529Z,4.47
2023-03-10T04:01:08.208Z,4.20
2023-03-10T04:03:35.056Z,3.92
2023-03-10T04:06:02.007Z,3.90
2023-03-10T04:08:28.784Z,3.83
2023-03-10T04:10:56.179Z,3.80
2023-03-10T04:13:22.920Z,3.75
2023-03-10T04:15:58.384Z,4.70
2023-03-10T04:18:25.870Z,3.40
2023-03-10T04:20:52.614Z,3.92
2023-03-10T04:23:19.396Z,4.20
2023-03-10T04:25:46.153Z,3.90
2023-03-10T04:28:12.916Z,4.25
2023-03-10T04:30:42.290Z,3.88
2023-03-10T04:33:10.144Z,4.25
2023-03-10T04:35:44.036Z,4.93
2023-03-10T04:38:10.752Z,5.00
2023-03-10T04:40:37.501Z,4.05
2023-03-10T04:43:04.826Z,5.18
2023-03-10T04:45:31.565Z,4.70
2023-03-10T04:47:58.352Z,4.97
2023-03-10T04:50:25.252Z,4.35
2023-03-10T04:52:52.169Z,5.22
2023-03-10T04:55:18.978Z,4.97
2023-03-10T04:57:46.766Z,5.28
2023-03-10T05:00:13.887Z,4.47
2023-03-10T05:02:40.807Z,4.97
2023-03-10T05:05:07.999Z,4.65
2023-03-10T05:07:34.800Z,4.95
2023-03-10T05:10:01.421Z,4.22
2023-03-10T05:12:30.246Z,4.57
2023-03-10T05:14:57.033Z,4.55
2023-03-10T05:17:23.959Z,3.33
2023-03-10T05:19:50.714Z,4.88
2023-03-10T05:22:18.590Z,4.82
2023-03-10T05:24:45.288Z,4.35
2023-03-10T05:27:12.983Z,4.38
2023-03-10T05:29:39.749Z,4.75
2023-03-10T05:32:07.307Z,4.47
2023-03-10T05:34:34.149Z,5.25
2023-03-10T05:37:00.859Z,4.97
2023-03-10T05:39:27.529Z,4.80
2023-03-10T05:41:54.208Z,5.15
2023-03-10T05:44:20.956Z,6.07
2023-03-10T05:46:48.763Z,4.93
2023-03-10T05:49:15.539Z,5.45
2023-03-10T05:51:42.236Z,5.57
2023-03-10T05:54:09.472Z,4.53
2023-03-10T05:56:36.272Z,3.40
2023-03-10T05:59:04.041Z,4.70
2023-03-10T06:01:30.958Z,4.53
2023-03-10T06:03:57.732Z,4.55
2023-03-10T06:06:24.537Z,5.10
2023-03-10T06:08:51.197Z,4.80
2023-03-10T06:11:18.538Z,4.93
2023-03-10T06:13:45.299Z,5.00
2023-03-10T06:16:12.067Z,4.90
2023-03-10T06:18:39.023Z,3.67
2023-03-10T06:21:11.492Z,5.35
2023-03-10T06:23:38.730Z,4.70
2023-03-10T06:26:12.601Z,4.90
2023-03-10T06:28:41.092Z,5.80
2023-03-10T06:31:14.098Z,13.35
2023-03-10T06:33:42.057Z,5.90
2023-03-10T06:36:12.994Z,5.07
2023-03-10T06:38:39.691Z,5.80
2023-03-10T06:41:07.090Z,5.82
2023-03-10T06:43:34.380Z,6.40
2023-03-10T06:46:04.522Z,4.68
2023-03-10T06:48:31.383Z,4.40
2023-03-10T06:50:58.329Z,3.97
2023-03-10T06:53:26.976Z,3.58
2023-03-10T06:56:14.454Z,6.13
2023-03-10T06:58:41.930Z,3.95
2023-03-10T07:01:09.695Z,4.13
2023-03-10T07:03:36.644Z,3.58
2023-03-10T07:06:04.739Z,3.80
2023-03-10T07:08:31.608Z,3.63
2023-03-10T07:10:58.435Z,3.80
2023-03-10T07:13:25.250Z,3.58
2023-03-10T07:15:52.144Z,4.03
2023-03-10T07:18:19.169Z,3.40
2023-03-10T07:20:47.775Z,5.30
2023-03-10T07:23:15.265Z,4.32
2023-03-10T07:25:41.993Z,7.32
2023-03-10T07:28:08.773Z,5.03
2023-03-10T07:30:36.522Z,5.63
2023-03-10T07:33:03.642Z,4.72
2023-03-10T07:35:30.366Z,4.78
2023-03-10T07:37:57.080Z,5.47
2023-03-10T07:40:25.084Z,4.53
2023-03-10T07:42:54.593Z,4.55
2023-03-10T07:45:22.714Z,4.32
2023-03-10T07:47:51.633Z,4.57
2023-03-10T07:50:20.135Z,5.45
2023-03-10T07:52:47.375Z,4.65
2023-03-10T07:55:14.244Z,4.88
2023-03-10T07:57:41.004Z,4.75
2023-03-10T08:00:08.733Z,4.10
2023-03-10T08:02:35.772Z,5.13
2023-03-10T08:05:02.659Z,4.40
2023-03-10T08:07:31.928Z,4.53
2023-03-10T08:09:58.700Z,3.92
2023-03-10T08:12:25.581Z,15.13
2023-03-10T08:14:55.168Z,5.60
2023-03-10T08:17:21.908Z,7.93
2023-03-10T08:19:48.607Z,4.47
2023-03-10T08:22:16.397Z,4.10
2023-03-10T08:24:43.065Z,5.00
2023-03-10T08:27:10.033Z,4.22
2023-03-10T08:29:36.818Z,3.80
2023-03-10T08:32:03.628Z,3.78
2023-03-10T08:34:34.811Z,11.52
2023-03-10T08:37:01.625Z,18.98
2023-03-10T08:39:29.211Z,3.95
2023-03-10T08:41:56.004Z,3.83
2023-03-10T08:44:23.019Z,3.88
2023-03-10T08:46:50.750Z,5.65
2023-03-10T08:49:20.623Z,3.95
2023-03-10T08:51:47.900Z,6.60
2023-03-10T08:54:17.967Z,3.88
2023-03-10T08:56:44.811Z,4.32
2023-03-10T08:59:11.675Z,3.92
2023-03-10T09:01:38.829Z,3.42
2023-03-10T09:04:07.604Z,4.35
2023-03-10T09:06:35.262Z,3.85
2023-03-10T09:09:02.763Z,3.17
2023-03-10T09:11:33.925Z,3.75
2023-03-10T09:14:02.248Z,11.93
2023-03-10T09:16:29.883Z,3.35
2023-03-10T09:19:00.151Z,3.67
2023-03-10T09:21:27.941Z,3.38
2023-03-10T09:23:54.679Z,2.30
2023-03-10T09:26:22.288Z,3.15
2023-03-10T09:28:51.078Z,3.35
2023-03-10T09:31:22.098Z,3.33
2023-03-10T09:33:49.433Z,3.42
2023-03-10T09:36:17.339Z,3.67
2023-03-10T09:38:44.619Z,3.53
2023-03-10T09:41:45.306Z,3.30
2023-03-10T09:47:06.405Z,2.88
2023-03-10T09:49:38.567Z,3.25
2023-03-10T09:52:26.072Z,5.65
2023-03-10T09:55:01.696Z,2.85
2023-03-10T09:57:29.520Z,3.28
2023-03-10T10:00:02.101Z,2.88
2023-03-10T10:02:41.607Z,2.53
2023-03-10T10:05:31.468Z,2.22
2023-03-10T10:08:02.097Z,1.77
2023-03-10T10:10:32.381Z,2.42
2023-03-10T10:13:05.273Z,2.22
2023-03-10T10:15:34.987Z,2.60
2023-03-10T10:18:22.705Z,2.70
2023-03-10T10:20:59.242Z,1.35
2023-03-10T10:23:44.387Z,2.17
2023-03-10T10:26:19.907Z,1.63
2023-03-10T10:28:59.958Z,1.88
2023-03-10T10:31:29.521Z,1.63
2023-03-10T10:33:56.301Z,1.60
2023-03-10T10:36:25.206Z,1.88
2023-03-10T10:38:54.595Z,1.48
2023-03-10T10:41:26.712Z,1.80
2023-03-10T10:43:57.066Z,1.85
2023-03-10T10:46:27.809Z,1.92
2023-03-10T10:49:21.040Z,1.58
2023-03-10T10:52:06.442Z,1.15
2023-03-10T10:54:40.804Z,1.98
2023-03-10T10:57:20.878Z,1.33
2023-03-10T10:59:48.186Z,1.33
2023-03-10T11:02:33.399Z,1.50
2023-03-10T11:05:14.453Z,1.10
2023-03-10T11:07:41.905Z,1.73
2023-03-10T11:10:17.639Z,1.80
2023-03-10T11:12:50.397Z,1.25
2023-03-10T11:15:23.658Z,1.80
2023-03-10T11:17:54.956Z,1.30
2023-03-10T11:20:45.112Z,2.00
2023-03-10T11:23:56.146Z,2.60
2023-03-10T11:26:31.698Z,3.28
2023-03-10T11:29:18.926Z,2.50
2023-03-10T11:32:04.232Z,6.60
2023-03-10T11:34:35.371Z,2.40
2023-03-10T11:37:25.068Z,3.38
2023-03-10T11:40:20.027Z,3.20
2023-03-10T11:43:11.390Z,2.47
2023-03-10T11:45:43.063Z,2.83
2023-03-10T11:48:25.681Z,2.50
2023-03-10T11:51:00.918Z,3.03
2023-03-10T11:53:44.916Z,2.40
2023-03-10T11:56:14.875Z,2.00
2023-03-10T11:58:47.569Z,2.92
2023-03-10T12:01:21.437Z,3.20
2023-03-10T12:04:05.820Z,3.13
2023-03-10T12:06:38.730Z,2.15
2023-03-10T12:09:07.586Z,3.00
2023-03-10T12:11:36.043Z,2.83
2023-03-10T12:14:03.408Z,2.35
2023-03-10T12:16:35.685Z,2.97
2023-03-10T12:19:04.098Z,7.18
2023-03-10T12:21:32.538Z,3.05
2023-03-10T12:24:01.880Z,3.28
2023-03-10T12:26:40.982Z,4.22
2023-03-10T12:29:35.849Z,3.08
2023-03-10T12:32:02.855Z,3.42
2023-03-10T12:34:32.460Z,4.05
2023-03-10T12:37:11.829Z,3.57
2023-03-10T12:39:43.653Z,5.03
2023-03-10T12:42:35.920Z,4.75
2023-03-10T12:45:05.404Z,2.85
2023-03-10T12:47:45.011Z,2.28
2023-03-10T12:50:24.892Z,3.67
2023-03-10T12:52:59.459Z,4.78
2023-03-10T12:55:28.005Z,3.17
2023-03-10T12:58:00.694Z,5.75
2023-03-10T13:00:42.480Z,3.78
2023-03-10T13:03:26.495Z,5.15
2023-03-10T13:06:20.940Z,4.07
2023-03-10T13:08:58.668Z,4.07
2023-03-10T13:11:48.909Z,5.03
2023-03-10T13:14:24.963Z,4.45
2023-03-10T13:17:00.652Z,3.35
2023-03-10T13:19:30.206Z,4.00
2023-03-10T13:21:57.464Z,4.25
2023-03-10T13:24:26.861Z,4.03
2023-03-10T13:27:07.471Z,6.35
2023-03-10T13:32:01.512Z,5.00
2023-03-10T13:34:30.570Z,3.13
2023-03-10T13:37:10.421Z,4.18
2023-03-10T13:39:37.657Z,5.05
2023-03-10T13:42:40.791Z,3.72
2023-03-10T13:45:23.108Z,4.53
2023-03-10T13:47:51.133Z,5.03
2023-03-10T13:50:18.238Z,6.28
2023-03-10T13:52:57.751Z,6.38
2023-03-10T13:55:25.498Z,5.50
2023-03-10T13:57:53.027Z,6.90
2023-03-10T14:00:23.114Z,4.72
2023-03-10T14:02:51.992Z,6.20
2023-03-10T14:05:45.793Z,5.85
2023-03-10T14:08:25.454Z,6.15
2023-03-10T14:10:52.345Z,4.50
2023-03-10T14:13:41.620Z,5.57
2023-03-10T14:16:09.147Z,5.07
2023-03-10T14:18:38.669Z,4.30
2023-03-10T14:21:26.082Z,5.78
2023-03-10T14:23:53.640Z,4.82
2023-03-10T14:26:20.421Z,7.25
2023-03-10T14:28:47.237Z,6.53
2023-03-10T14:31:23.011Z,8.65
2023-03-10T14:33:50.518Z,9.20
2023-03-10T14:36:17.599Z,8.65
2023-03-10T14:38:46.049Z,8.88
2023-03-10T14:41:13.752Z,6.53
2023-03-10T14:43:41.153Z,4.50
2023-03-10T14:46:12.013Z,3.72
2023-03-10T14:48:41.834Z,3.25
2023-03-10T14:51:28.959Z,3.35
2023-03-10T14:54:01.050Z,2.25
2023-03-10T14:56:28.236Z,3.33
2023-03-10T14:58:55.269Z,3.50
2023-03-10T15:01:22.121Z,2.47
2023-03-10T15:03:52.701Z,2.58
2023-03-10T15:08:46.788Z,2.97
2023-03-10T15:11:15.904Z,2.70
2023-03-10T15:16:13.955Z,3.22
2023-03-10T15:18:41.070Z,3.33
2023-03-10T15:21:08.927Z,3.30
2023-03-10T15:23:35.762Z,2.55
2023-03-10T15:26:09.628Z,2.10
2023-03-10T15:28:37.888Z,2.97
2023-03-10T15:31:05.672Z,3.63
2023-03-10T15:33:33.154Z,1.85
2023-03-10T15:36:01.321Z,4.22
2023-03-10T15:38:28.253Z,3.83
2023-03-10T15:40:56.837Z,3.33
2023-03-10T15:43:23.643Z,1.85
2023-03-10T15:45:51.100Z,3.72
2023-03-10T15:48:18.598Z,2.47
2023-03-10T15:50:48.746Z,3.15
2023-03-10T15:53:17.186Z,3.17
2023-03-10T15:55:44.000Z,2.58
2023-03-10T15:58:11.588Z,2.95
2023-03-10T16:00:43.700Z,2.17
2023-03-10T16:03:17.708Z,2.38
2023-03-10T16:05:49.484Z,2.00
2023-03-10T16:08:16.473Z,2.53
2023-03-10T16:10:54.311Z,1.70
2023-03-10T16:13:21.935Z,3.05
2023-03-10T16:15:48.695Z,2.60
2023-03-10T16:18:15.429Z,2.38
2023-03-10T16:20:42.127Z,2.28
2023-03-10T16:23:08.918Z,1.98
2023-03-10T16:25:36.771Z,1.40
2023-03-10T16:28:03.489Z,1.10
2023-03-10T16:30:30.308Z,1.50
2023-03-10T16:33:00.754Z,1.05
2023-03-10T16:37:54.205Z,0.70
2023-03-10T16:40:20.959Z,1.20
2023-03-10T16:42:47.772Z,0.60
2023-03-10T16:45:14.554Z,0.80
2023-03-10T16:47:43.800Z,0.80
2023-03-10T16:50:12.578Z,0.90
2023-03-10T16:52:42.238Z,1.08
2023-03-10T16:55:16.885Z,1.70
2023-03-10T16:57:45.791Z,0.70
2023-03-10T17:00:13.419Z,0.73
2023-03-10T17:02:40.234Z,0.80
2023-03-10T17:05:07.083Z,0.95
2023-03-10T17:07:36.360Z,2.67
2023-03-10T17:10:07.438Z,0.77
2023-03-10T17:12:34.456Z,0.93
2023-03-10T17:15:01.181Z,0.85
2023-03-10T17:17:30.016Z,1.10
2023-03-10T17:19:56.799Z,1.10
2023-03-10T17:22:23.609Z,0.80
2023-03-10T17:24:54.163Z,1.13
2023-03-10T17:27:21.429Z,1.20
2023-03-10T17:29:48.322Z,1.50
2023-03-10T17:32:15.433Z,0.80
2023-03-10T17:34:43.062Z,1.00
2023-03-10T17:37:10.022Z,0.82
2023-03-10T17:39:36.843Z,0.80
2023-03-10T17:42:03.781Z,0.70
2023-03-10T17:44:30.802Z,0.80
2023-03-10T17:46:57.740Z,0.80
2023-03-10T17:49:24.427Z,1.17
2023-03-10T17:51:51.269Z,0.93
2023-03-10T17:54:20.383Z,0.80
2023-03-10T17:56:47.525Z,1.40
2023-03-10T17:59:17.103Z,0.75
2023-03-10T18:01:45.606Z,0.80
2023-03-10T18:04:13.605Z,0.73
2023-03-10T18:06:40.768Z,1.00
2023-03-10T18:09:11.754Z,0.70
2023-03-10T18:11:38.871Z,0.63
2023-03-10T18:14:06.468Z,0.68
2023-03-10T18:16:37.257Z,0.90
2023-03-10T18:19:04.370Z,1.10
2023-03-10T18:21:31.214Z,1.02
2023-03-10T18:23:58.537Z,1.10
2023-03-10T18:26:30.359Z,1.13
2023-03-10T18:28:58.220Z,1.20
2023-03-10T18:31:30.851Z,1.20
2023-03-10T18:33:58.334Z,1.40
2023-03-10T18:36:25.683Z,2.03
2023-03-10T18:38:53.206Z,1.30
2023-03-10T18:41:23.176Z,1.10
2023-03-10T18:43:51.156Z,0.90
2023-03-10T18:46:18.362Z,1.08
2023-03-10T18:48:45.136Z,1.00
2023-03-10T18:51:13.528Z,0.85
2023-03-10T18:53:40.621Z,1.02
2023-03-10T18:56:07.981Z,1.73
2023-03-10T18:58:34.915Z,1.30
2023-03-10T19:01:01.652Z,1.75
2023-03-10T19:03:29.394Z,1.15
2023-03-10T19:05:56.693Z,1.33
2023-03-10T19:08:24.690Z,1.65
2023-03-10T19:10:57.662Z,1.85
2023-03-10T19:13:26.611Z,1.58
2023-03-10T19:15:53.518Z,1.50
2023-03-10T19:18:20.389Z,1.63
2023-03-10T19:20:47.166Z,2.00
2023-03-10T19:23:15.222Z,1.73
2023-03-10T19:25:42.210Z,1.88
2023-03-10T19:28:09.101Z,1.63
2023-03-10T19:30:36.176Z,1.60
2023-03-10T19:33:03.163Z,1.63
2023-03-10T19:35:29.856Z,1.42
2023-03-10T19:37:56.622Z,1.40
2023-03-10T19:40:24.423Z,1.75
2023-03-10T19:42:51.210Z,1.80
2023-03-10T19:45:18.843Z,1.67
2023-03-10T19:47:47.780Z,1.55
2023-03-10T19:50:17.273Z,1.42
2023-03-10T19:52:46.460Z,1.52
2023-03-10T19:55:24.030Z,1.30
2023-03-10T19:57:52.831Z,1.77
2023-03-10T20:00:27.940Z,1.55
2023-03-10T20:02:55.135Z,1.50
2023-03-10T20:05:22.818Z,1.23
2023-03-10T20:07:49.570Z,0.77
2023-03-10T20:10:17.686Z,1.58
2023-03-10T20:12:46.982Z,1.60
2023-03-10T20:15:14.562Z,2.03
2023-03-10T20:17:41.257Z,1.20
2023-03-10T20:20:11.430Z,1.60
2023-03-10T20:22:41.095Z,3.00
2023-03-10T20:25:09.587Z,2.40
2023-03-10T20:27:36.892Z,2.05
2023-03-10T20:30:18.445Z,1.70
2023-03-10T20:32:45.695Z,1.67
2023-03-10T20:35:14.008Z,1.40
2023-03-10T20:37:41.980Z,1.77
2023-03-10T20:40:11.639Z,1.85
2023-03-10T20:42:38.458Z,1.90
2023-03-10T20:45:06.332Z,2.03
2023-03-10T20:47:33.498Z,1.60
2023-03-10T20:50:00.210Z,1.98
2023-03-10T20:52:26.962Z,1.67
2023-03-10T20:54:54.455Z,1.73
2023-03-10T20:57:21.505Z,2.10
2023-03-10T20:59:48.308Z,2.53
2023-03-10T21:02:16.857Z,2.05
2023-03-10T21:04:44.933Z,1.92
2023-03-10T21:07:11.805Z,1.80
2023-03-10T21:09:38.858Z,1.90
2023-03-10T21:12:05.639Z,1.92
2023-03-10T21:14:33.543Z,2.08
2023-03-10T21:17:01.508Z,2.00
2023-03-10T21:19:28.905Z,2.47
2023-03-10T21:21:55.802Z,2.95
2023-03-10T21:24:22.605Z,3.17
2023-03-10T21:26:49.801Z,2.83
2023-03-10T21:29:16.496Z,2.20
2023-03-10T21:31:43.236Z,2.00
2023-03-10T21:34:09.946Z,1.95
2023-03-10T21:36:36.726Z,1.45
2023-03-10T21:39:04.200Z,1.95
2023-03-10T21:41:31.576Z,1.90
2023-03-10T21:43:58.981Z,2.13
2023-03-10T21:46:26.305Z,1.50
2023-03-10T21:48:53.685Z,1.70
2023-03-10T21:51:23.158Z,2.05
2023-03-10T21:53:51.068Z,2.00
2023-03-10T21:56:19.939Z,2.00
2023-03-10T21:58:47.302Z,1.70
2023-03-10T22:01:17.097Z,2.42
2023-03-10T22:03:44.380Z,2.20
2023-03-10T22:06:11.513Z,2.72
2023-03-10T22:08:38.635Z,3.35
2023-03-10T22:11:06.885Z,4.60
2023-03-10T22:13:34.582Z,4.10
2023-03-10T22:16:02.432Z,5.00
2023-03-10T22:18:30.163Z,4.85
2023-03-10T22:20:57.051Z,3.92
2023-03-10T22:23:23.827Z,3.40
2023-03-10T22:25:50.636Z,4.28
2023-03-10T22:28:17.404Z,4.68
2023-03-10T22:30:44.059Z,3.35
2023-03-10T22:33:10.913Z,3.13
2023-03-10T22:35:38.324Z,2.13
2023-03-10T22:38:06.314Z,2.40
2023-03-10T22:40:33.628Z,2.28
2023-03-10T22:43:00.309Z,2.00
2023-03-10T22:45:32.540Z,2.20
2023-03-10T22:48:03.582Z,1.77
2023-03-10T22:50:37.091Z,1.70
2023-03-10T22:53:08.034Z,1.85
2023-03-10T22:55:35.690Z,1.80
2023-03-10T22:58:05.031Z,1.67
2023-03-10T23:00:32.969Z,2.20
2023-03-10T23:03:00.193Z,2.17
2023-03-10T23:05:28.335Z,2.95
2023-03-10T23:07:55.493Z,2.80
2023-03-10T23:10:25.044Z,5.13
2023-03-10T23:12:52.093Z,4.00
2023-03-10T23:15:25.913Z,3.75
2023-03-10T23:17:54.385Z,3.05
2023-03-10T23:20:24.048Z,2.53
2023-03-10T23:22:51.065Z,2.60
2023-03-10T23:25:23.680Z,2.15
2023-03-10T23:27:50.769Z,2.20
2023-03-10T23:30:17.794Z,1.77
2023-03-10T23:32:47.771Z,2.08
2023-03-10T23:35:18.039Z,1.92
2023-03-10T23:37:44.817Z,1.88
2023-03-10T23:40:14.705Z,1.60
2023-03-10T23:42:42.571Z,1.70
2023-03-10T23:45:13.568Z,2.05
2023-03-10T23:47:40.892Z,1.60
2023-03-10T23:50:09.071Z,1.98
2023-03-10T23:52:35.840Z,1.27
2023-03-10T23:55:02.585Z,1.95
2023-03-10T23:57:29.361Z,1.45
2023-03-10T23:59:56.058Z,1.48
